sensor_id;sensor_type;location;lat;lon;timestamp;P1;durP1;ratioP1;P2;durP2;ratioP2
58681;SDS011;44460;40.162;18.294;2022-07-23T00:02:21;16.38;;;8.45;;
58681;SDS011;44460;40.162;18.294;2022-07-23T00:04:46;16.63;;;8.23;;
58681;SDS011;44460;40.162;18.294;2022-07-23T00:07:12;18.50;;;8.40;;
58681;SDS011;44460;40.162;18.294;2022-07-23T00:09:37;18.42;;;7.50;;
58681;SDS011;44460;40.162;18.294;2022-07-23T00:12:02;17.13;;;8.30;;
58681;SDS011;44460;40.162;18.294;2022-07-23T00:14:28;22.90;;;8.25;;
58681;SDS011;44460;40.162;18.294;2022-07-23T00:16:53;17.20;;;7.88;;
58681;SDS011;44460;40.162;18.294;2022-07-23T00:19:19;21.02;;;8.55;;
58681;SDS011;44460;40.162;18.294;2022-07-23T00:21:44;19.58;;;8.63;;
58681;SDS011;44460;40.162;18.294;2022-07-23T00:24:10;16.58;;;7.68;;
58681;SDS011;44460;40.162;18.294;2022-07-23T00:26:35;14.90;;;8.05;;
58681;SDS011;44460;40.162;18.294;2022-07-23T00:29:01;14.85;;;7.80;;
58681;SDS011;44460;40.162;18.294;2022-07-23T00:31:26;13.35;;;7.03;;
58681;SDS011;44460;40.162;18.294;2022-07-23T00:33:53;12.50;;;7.50;;
58681;SDS011;44460;40.162;18.294;2022-07-23T00:36:22;19.80;;;7.45;;
58681;SDS011;44460;40.162;18.294;2022-07-23T00:38:48;12.47;;;6.70;;
58681;SDS011;44460;40.162;18.294;2022-07-23T00:41:14;11.40;;;6.25;;
58681;SDS011;44460;40.162;18.294;2022-07-23T00:43:40;14.77;;;6.97;;
58681;SDS011;44460;40.162;18.294;2022-07-23T00:46:05;14.35;;;6.40;;
58681;SDS011;44460;40.162;18.294;2022-07-23T00:48:31;12.52;;;6.72;;
58681;SDS011;44460;40.162;18.294;2022-07-23T00:50:56;19.17;;;6.68;;
58681;SDS011;44460;40.162;18.294;2022-07-23T00:53:22;12.13;;;6.05;;
58681;SDS011;44460;40.162;18.294;2022-07-23T00:55:48;21.92;;;5.93;;
58681;SDS011;44460;40.162;18.294;2022-07-23T00:58:14;19.40;;;5.82;;
58681;SDS011;44460;40.162;18.294;2022-07-23T01:00:39;13.10;;;6.20;;
58681;SDS011;44460;40.162;18.294;2022-07-23T01:03:05;13.85;;;5.40;;
58681;SDS011;44460;40.162;18.294;2022-07-23T01:05:30;12.07;;;5.65;;
58681;SDS011;44460;40.162;18.294;2022-07-23T01:07:56;14.55;;;5.05;;
58681;SDS011;44460;40.162;18.294;2022-07-23T01:10:21;10.35;;;5.22;;
58681;SDS011;44460;40.162;18.294;2022-07-23T01:12:56;9.32;;;5.03;;
58681;SDS011;44460;40.162;18.294;2022-07-23T01:15:22;16.25;;;5.80;;
58681;SDS011;44460;40.162;18.294;2022-07-23T01:17:48;12.90;;;5.45;;
58681;SDS011;44460;40.162;18.294;2022-07-23T01:20:13;11.68;;;4.93;;
58681;SDS011;44460;40.162;18.294;2022-07-23T01:22:39;8.75;;;4.53;;
58681;SDS011;44460;40.162;18.294;2022-07-23T01:25:04;10.18;;;5.03;;
58681;SDS011;44460;40.162;18.294;2022-07-23T01:27:30;9.63;;;4.75;;
58681;SDS011;44460;40.162;18.294;2022-07-23T01:30:01;17.85;;;5.45;;
58681;SDS011;44460;40.162;18.294;2022-07-23T01:32:27;13.65;;;4.90;;
58681;SDS011;44460;40.162;18.294;2022-07-23T01:34:53;10.85;;;4.53;;
58681;SDS011;44460;40.162;18.294;2022-07-23T01:37:18;12.00;;;5.15;;
58681;SDS011;44460;40.162;18.294;2022-07-23T01:39:45;9.05;;;4.63;;
58681;SDS011;44460;40.162;18.294;2022-07-23T01:42:11;10.00;;;4.50;;
58681;SDS011;44460;40.162;18.294;2022-07-23T01:44:36;9.10;;;4.18;;
58681;SDS011;44460;40.162;18.294;2022-07-23T01:47:03;13.10;;;4.67;;
58681;SDS011;44460;40.162;18.294;2022-07-23T01:49:29;9.45;;;4.65;;
58681;SDS011;44460;40.162;18.294;2022-07-23T01:52:17;12.60;;;4.25;;
58681;SDS011;44460;40.162;18.294;2022-07-23T01:54:47;8.57;;;3.95;;
58681;SDS011;44460;40.162;18.294;2022-07-23T01:57:13;12.48;;;4.68;;
58681;SDS011;44460;40.162;18.294;2022-07-23T01:59:38;12.57;;;4.32;;
58681;SDS011;44460;40.162;18.294;2022-07-23T02:02:05;8.50;;;4.00;;
58681;SDS011;44460;40.162;18.294;2022-07-23T02:04:30;8.43;;;4.07;;
58681;SDS011;44460;40.162;18.294;2022-07-23T02:06:58;9.35;;;3.97;;
58681;SDS011;44460;40.162;18.294;2022-07-23T02:09:25;9.02;;;4.00;;
58681;SDS011;44460;40.162;18.294;2022-07-23T02:11:50;12.63;;;4.05;;
58681;SDS011;44460;40.162;18.294;2022-07-23T02:14:18;8.43;;;3.65;;
58681;SDS011;44460;40.162;18.294;2022-07-23T02:16:45;9.10;;;3.75;;
58681;SDS011;44460;40.162;18.294;2022-07-23T02:19:10;10.23;;;4.13;;
58681;SDS011;44460;40.162;18.294;2022-07-23T02:21:36;10.30;;;4.25;;
58681;SDS011;44460;40.162;18.294;2022-07-23T02:24:01;8.18;;;3.78;;
58681;SDS011;44460;40.162;18.294;2022-07-23T02:26:27;10.02;;;4.15;;
58681;SDS011;44460;40.162;18.294;2022-07-23T02:28:53;8.63;;;4.30;;
58681;SDS011;44460;40.162;18.294;2022-07-23T02:31:19;9.88;;;3.83;;
58681;SDS011;44460;40.162;18.294;2022-07-23T02:33:45;10.63;;;4.40;;
58681;SDS011;44460;40.162;18.294;2022-07-23T02:36:10;11.35;;;4.78;;
58681;SDS011;44460;40.162;18.294;2022-07-23T02:38:36;12.00;;;5.00;;
58681;SDS011;44460;40.162;18.294;2022-07-23T02:41:02;12.82;;;4.85;;
58681;SDS011;44460;40.162;18.294;2022-07-23T02:43:28;8.55;;;4.75;;
58681;SDS011;44460;40.162;18.294;2022-07-23T02:45:54;10.90;;;5.40;;
58681;SDS011;44460;40.162;18.294;2022-07-23T02:48:20;16.08;;;5.50;;
58681;SDS011;44460;40.162;18.294;2022-07-23T02:50:47;12.15;;;5.53;;
58681;SDS011;44460;40.162;18.294;2022-07-23T02:53:16;10.40;;;5.43;;
58681;SDS011;44460;40.162;18.294;2022-07-23T02:55:44;11.10;;;5.97;;
58681;SDS011;44460;40.162;18.294;2022-07-23T02:58:09;13.95;;;6.20;;
58681;SDS011;44460;40.162;18.294;2022-07-23T03:00:35;20.23;;;7.32;;
58681;SDS011;44460;40.162;18.294;2022-07-23T03:03:00;13.27;;;6.43;;
58681;SDS011;44460;40.162;18.294;2022-07-23T03:05:26;18.65;;;6.70;;
58681;SDS011;44460;40.162;18.294;2022-07-23T03:07:51;12.77;;;6.53;;
58681;SDS011;44460;40.162;18.294;2022-07-23T03:10:17;15.50;;;6.32;;
58681;SDS011;44460;40.162;18.294;2022-07-23T03:12:43;17.52;;;5.82;;
58681;SDS011;44460;40.162;18.294;2022-07-23T03:15:09;9.55;;;5.50;;
58681;SDS011;44460;40.162;18.294;2022-07-23T03:17:35;15.25;;;6.22;;
58681;SDS011;44460;40.162;18.294;2022-07-23T03:20:02;13.00;;;6.15;;
58681;SDS011;44460;40.162;18.294;2022-07-23T03:22:27;11.43;;;6.22;;
58681;SDS011;44460;40.162;18.294;2022-07-23T03:24:53;12.82;;;6.35;;
58681;SDS011;44460;40.162;18.294;2022-07-23T03:27:23;12.88;;;6.80;;
58681;SDS011;44460;40.162;18.294;2022-07-23T03:29:52;11.48;;;5.93;;
58681;SDS011;44460;40.162;18.294;2022-07-23T03:32:18;11.20;;;6.38;;
58681;SDS011;44460;40.162;18.294;2022-07-23T03:34:44;13.38;;;6.18;;
58681;SDS011;44460;40.162;18.294;2022-07-23T03:37:09;12.45;;;6.25;;
58681;SDS011;44460;40.162;18.294;2022-07-23T03:39:36;10.02;;;6.15;;
58681;SDS011;44460;40.162;18.294;2022-07-23T03:42:01;11.18;;;6.43;;
58681;SDS011;44460;40.162;18.294;2022-07-23T03:44:27;14.35;;;6.28;;
58681;SDS011;44460;40.162;18.294;2022-07-23T03:46:52;10.02;;;5.85;;
58681;SDS011;44460;40.162;18.294;2022-07-23T03:49:18;12.43;;;6.20;;
58681;SDS011;44460;40.162;18.294;2022-07-23T03:51:43;10.80;;;5.75;;
58681;SDS011;44460;40.162;18.294;2022-07-23T03:54:09;10.43;;;5.68;;
58681;SDS011;44460;40.162;18.294;2022-07-23T03:56:35;11.13;;;5.90;;
58681;SDS011;44460;40.162;18.294;2022-07-23T03:59:00;15.13;;;5.72;;
58681;SDS011;44460;40.162;18.294;2022-07-23T04:01:26;13.27;;;5.72;;
58681;SDS011;44460;40.162;18.294;2022-07-23T04:03:52;19.48;;;6.22;;
58681;SDS011;44460;40.162;18.294;2022-07-23T04:06:17;9.73;;;5.68;;
58681;SDS011;44460;40.162;18.294;2022-07-23T04:08:43;31.80;;;22.00;;
58681;SDS011;44460;40.162;18.294;2022-07-23T04:11:08;10.32;;;5.65;;
58681;SDS011;44460;40.162;18.294;2022-07-23T04:13:34;16.05;;;5.65;;
58681;SDS011;44460;40.162;18.294;2022-07-23T04:16:02;17.80;;;6.65;;
58681;SDS011;44460;40.162;18.294;2022-07-23T04:18:29;20.17;;;6.82;;
58681;SDS011;44460;40.162;18.294;2022-07-23T04:21:05;27.90;;;7.55;;
58681;SDS011;44460;40.162;18.294;2022-07-23T04:25:58;46.87;;;8.13;;
58681;SDS011;44460;40.162;18.294;2022-07-23T04:28:24;36.90;;;7.70;;
58681;SDS011;44460;40.162;18.294;2022-07-23T04:30:49;24.60;;;6.43;;
58681;SDS011;44460;40.162;18.294;2022-07-23T04:33:16;21.80;;;5.93;;
58681;SDS011;44460;40.162;18.294;2022-07-23T04:35:41;14.15;;;5.10;;
58681;SDS011;44460;40.162;18.294;2022-07-23T04:38:18;13.07;;;5.22;;
58681;SDS011;44460;40.162;18.294;2022-07-23T04:40:45;14.13;;;5.00;;
58681;SDS011;44460;40.162;18.294;2022-07-23T04:43:10;10.10;;;5.30;;
58681;SDS011;44460;40.162;18.294;2022-07-23T04:45:43;8.48;;;5.25;;
58681;SDS011;44460;40.162;18.294;2022-07-23T04:48:08;10.63;;;5.18;;
58681;SDS011;44460;40.162;18.294;2022-07-23T04:50:34;10.57;;;4.90;;
58681;SDS011;44460;40.162;18.294;2022-07-23T04:52:59;13.95;;;5.53;;
58681;SDS011;44460;40.162;18.294;2022-07-23T04:55:25;10.57;;;5.55;;
58681;SDS011;44460;40.162;18.294;2022-07-23T04:57:51;15.50;;;6.78;;
58681;SDS011;44460;40.162;18.294;2022-07-23T05:00:16;16.02;;;7.30;;
58681;SDS011;44460;40.162;18.294;2022-07-23T05:02:42;17.25;;;6.80;;
58681;SDS011;44460;40.162;18.294;2022-07-23T05:05:08;19.47;;;7.63;;
58681;SDS011;44460;40.162;18.294;2022-07-23T05:07:34;19.70;;;8.07;;
58681;SDS011;44460;40.162;18.294;2022-07-23T05:09:59;17.23;;;7.25;;
58681;SDS011;44460;40.162;18.294;2022-07-23T05:12:25;13.90;;;6.68;;
58681;SDS011;44460;40.162;18.294;2022-07-23T05:14:50;20.08;;;7.05;;
58681;SDS011;44460;40.162;18.294;2022-07-23T05:17:16;17.40;;;7.43;;
58681;SDS011;44460;40.162;18.294;2022-07-23T05:19:42;16.48;;;6.57;;
58681;SDS011;44460;40.162;18.294;2022-07-23T05:22:08;13.43;;;5.90;;
58681;SDS011;44460;40.162;18.294;2022-07-23T05:24:33;10.35;;;5.05;;
58681;SDS011;44460;40.162;18.294;2022-07-23T05:26:59;22.92;;;4.57;;
58681;SDS011;44460;40.162;18.294;2022-07-23T05:29:24;13.45;;;4.50;;
58681;SDS011;44460;40.162;18.294;2022-07-23T05:31:50;10.02;;;4.10;;
58681;SDS011;44460;40.162;18.294;2022-07-23T05:34:16;8.60;;;4.18;;
58681;SDS011;44460;40.162;18.294;2022-07-23T05:36:42;12.73;;;4.55;;
58681;SDS011;44460;40.162;18.294;2022-07-23T05:39:09;7.78;;;3.00;;
58681;SDS011;44460;40.162;18.294;2022-07-23T05:41:35;9.75;;;3.88;;
58681;SDS011;44460;40.162;18.294;2022-07-23T05:44:02;8.05;;;3.80;;
58681;SDS011;44460;40.162;18.294;2022-07-23T05:46:29;5.55;;;3.38;;
58681;SDS011;44460;40.162;18.294;2022-07-23T05:48:59;10.43;;;3.78;;
58681;SDS011;44460;40.162;18.294;2022-07-23T05:51:47;13.63;;;3.97;;
58681;SDS011;44460;40.162;18.294;2022-07-23T05:54:16;8.43;;;3.90;;
58681;SDS011;44460;40.162;18.294;2022-07-23T05:56:41;10.73;;;3.77;;
58681;SDS011;44460;40.162;18.294;2022-07-23T05:59:07;8.90;;;3.90;;
58681;SDS011;44460;40.162;18.294;2022-07-23T06:01:33;8.70;;;4.15;;
58681;SDS011;44460;40.162;18.294;2022-07-23T06:04:05;11.48;;;4.05;;
58681;SDS011;44460;40.162;18.294;2022-07-23T06:06:34;11.70;;;3.90;;
58681;SDS011;44460;40.162;18.294;2022-07-23T06:09:01;7.65;;;3.63;;
58681;SDS011;44460;40.162;18.294;2022-07-23T06:11:26;9.13;;;3.97;;
58681;SDS011;44460;40.162;18.294;2022-07-23T06:13:52;10.23;;;3.43;;
58681;SDS011;44460;40.162;18.294;2022-07-23T06:16:20;13.98;;;3.90;;
58681;SDS011;44460;40.162;18.294;2022-07-23T06:18:46;7.70;;;3.87;;
58681;SDS011;44460;40.162;18.294;2022-07-23T06:21:11;7.80;;;3.77;;
58681;SDS011;44460;40.162;18.294;2022-07-23T06:23:36;13.87;;;4.50;;
58681;SDS011;44460;40.162;18.294;2022-07-23T06:26:02;6.53;;;3.50;;
58681;SDS011;44460;40.162;18.294;2022-07-23T06:28:28;7.40;;;3.07;;
58681;SDS011;44460;40.162;18.294;2022-07-23T06:30:54;7.17;;;3.43;;
58681;SDS011;44460;40.162;18.294;2022-07-23T06:33:19;11.53;;;3.53;;
58681;SDS011;44460;40.162;18.294;2022-07-23T06:35:45;12.83;;;3.80;;
58681;SDS011;44460;40.162;18.294;2022-07-23T06:38:10;10.70;;;3.93;;
58681;SDS011;44460;40.162;18.294;2022-07-23T06:40:35;10.70;;;3.57;;
58681;SDS011;44460;40.162;18.294;2022-07-23T06:43:01;8.83;;;3.50;;
58681;SDS011;44460;40.162;18.294;2022-07-23T06:45:26;12.40;;;4.23;;
58681;SDS011;44460;40.162;18.294;2022-07-23T06:47:52;19.60;;;4.87;;
58681;SDS011;44460;40.162;18.294;2022-07-23T06:50:18;18.60;;;4.65;;
58681;SDS011;44460;40.162;18.294;2022-07-23T06:52:44;8.73;;;4.07;;
58681;SDS011;44460;40.162;18.294;2022-07-23T06:55:09;11.23;;;4.03;;
58681;SDS011;44460;40.162;18.294;2022-07-23T06:57:37;9.90;;;4.35;;
58681;SDS011;44460;40.162;18.294;2022-07-23T07:00:03;13.20;;;5.33;;
58681;SDS011;44460;40.162;18.294;2022-07-23T07:02:29;20.98;;;5.72;;
58681;SDS011;44460;40.162;18.294;2022-07-23T07:04:55;13.27;;;5.50;;
58681;SDS011;44460;40.162;18.294;2022-07-23T07:07:21;15.03;;;6.60;;
58681;SDS011;44460;40.162;18.294;2022-07-23T07:09:46;14.00;;;5.77;;
58681;SDS011;44460;40.162;18.294;2022-07-23T07:12:12;10.20;;;4.50;;
58681;SDS011;44460;40.162;18.294;2022-07-23T07:14:37;9.50;;;4.13;;
58681;SDS011;44460;40.162;18.294;2022-07-23T07:17:03;10.60;;;4.17;;
58681;SDS011;44460;40.162;18.294;2022-07-23T07:19:28;13.63;;;4.87;;
58681;SDS011;44460;40.162;18.294;2022-07-23T07:21:53;10.10;;;4.60;;
58681;SDS011;44460;40.162;18.294;2022-07-23T07:24:19;8.73;;;4.60;;
58681;SDS011;44460;40.162;18.294;2022-07-23T07:26:44;11.93;;;4.07;;
58681;SDS011;44460;40.162;18.294;2022-07-23T07:29:10;11.90;;;3.80;;
58681;SDS011;44460;40.162;18.294;2022-07-23T07:31:35;6.67;;;3.43;;
58681;SDS011;44460;40.162;18.294;2022-07-23T07:34:01;9.30;;;3.30;;
58681;SDS011;44460;40.162;18.294;2022-07-23T07:36:26;8.40;;;3.10;;
58681;SDS011;44460;40.162;18.294;2022-07-23T07:38:51;12.80;;;3.93;;
58681;SDS011;44460;40.162;18.294;2022-07-23T07:41:17;8.43;;;3.57;;
58681;SDS011;44460;40.162;18.294;2022-07-23T07:43:48;8.45;;;4.80;;
58681;SDS011;44460;40.162;18.294;2022-07-23T07:46:13;7.23;;;3.40;;
58681;SDS011;44460;40.162;18.294;2022-07-23T07:48:38;11.40;;;3.37;;
58681;SDS011;44460;40.162;18.294;2022-07-23T07:51:04;8.13;;;3.77;;
58681;SDS011;44460;40.162;18.294;2022-07-23T07:53:30;8.70;;;3.17;;
58681;SDS011;44460;40.162;18.294;2022-07-23T07:55:55;11.03;;;3.50;;
58681;SDS011;44460;40.162;18.294;2022-07-23T07:58:21;11.23;;;3.67;;
58681;SDS011;44460;40.162;18.294;2022-07-23T08:00:46;10.73;;;3.43;;
58681;SDS011;44460;40.162;18.294;2022-07-23T08:03:12;11.50;;;3.53;;
58681;SDS011;44460;40.162;18.294;2022-07-23T08:05:37;11.10;;;3.57;;
58681;SDS011;44460;40.162;18.294;2022-07-23T08:08:03;9.33;;;3.43;;
58681;SDS011;44460;40.162;18.294;2022-07-23T08:10:29;5.97;;;3.13;;
58681;SDS011;44460;40.162;18.294;2022-07-23T08:12:58;11.05;;;3.70;;
58681;SDS011;44460;40.162;18.294;2022-07-23T08:15:26;10.55;;;3.65;;
58681;SDS011;44460;40.162;18.294;2022-07-23T08:17:52;9.45;;;3.33;;
58681;SDS011;44460;40.162;18.294;2022-07-23T08:20:18;6.57;;;3.30;;
58681;SDS011;44460;40.162;18.294;2022-07-23T08:22:53;11.35;;;3.20;;
58681;SDS011;44460;40.162;18.294;2022-07-23T08:25:20;8.15;;;3.00;;
58681;SDS011;44460;40.162;18.294;2022-07-23T08:27:46;8.68;;;3.20;;
58681;SDS011;44460;40.162;18.294;2022-07-23T08:30:12;9.07;;;3.42;;
58681;SDS011;44460;40.162;18.294;2022-07-23T08:32:50;6.63;;;3.27;;
58681;SDS011;44460;40.162;18.294;2022-07-23T08:35:17;5.20;;;3.00;;
58681;SDS011;44460;40.162;18.294;2022-07-23T08:37:42;6.17;;;3.07;;
58681;SDS011;44460;40.162;18.294;2022-07-23T08:40:08;14.43;;;3.30;;
58681;SDS011;44460;40.162;18.294;2022-07-23T08:42:33;13.03;;;3.17;;
58681;SDS011;44460;40.162;18.294;2022-07-23T08:45:03;15.55;;;4.53;;
58681;SDS011;44460;40.162;18.294;2022-07-23T08:47:29;8.93;;;3.63;;
58681;SDS011;44460;40.162;18.294;2022-07-23T08:49:54;6.88;;;3.40;;
58681;SDS011;44460;40.162;18.294;2022-07-23T08:52:20;11.98;;;3.55;;
58681;SDS011;44460;40.162;18.294;2022-07-23T08:54:46;6.93;;;3.37;;
58681;SDS011;44460;40.162;18.294;2022-07-23T08:57:11;7.63;;;3.23;;
58681;SDS011;44460;40.162;18.294;2022-07-23T08:59:37;11.17;;;4.63;;
58681;SDS011;44460;40.162;18.294;2022-07-23T09:02:02;16.57;;;3.73;;
58681;SDS011;44460;40.162;18.294;2022-07-23T09:04:28;12.37;;;3.63;;
58681;SDS011;44460;40.162;18.294;2022-07-23T09:06:53;12.77;;;3.37;;
58681;SDS011;44460;40.162;18.294;2022-07-23T09:09:19;8.23;;;3.17;;
58681;SDS011;44460;40.162;18.294;2022-07-23T09:11:46;8.95;;;4.03;;
58681;SDS011;44460;40.162;18.294;2022-07-23T09:14:11;10.77;;;3.60;;
58681;SDS011;44460;40.162;18.294;2022-07-23T09:16:37;8.70;;;4.20;;
58681;SDS011;44460;40.162;18.294;2022-07-23T09:19:03;7.37;;;3.30;;
58681;SDS011;44460;40.162;18.294;2022-07-23T09:21:30;8.93;;;3.78;;
58681;SDS011;44460;40.162;18.294;2022-07-23T09:26:25;10.43;;;3.83;;
58681;SDS011;44460;40.162;18.294;2022-07-23T09:31:19;8.50;;;3.70;;
58681;SDS011;44460;40.162;18.294;2022-07-23T09:33:45;10.73;;;3.53;;
58681;SDS011;44460;40.162;18.294;2022-07-23T09:36:10;8.43;;;3.47;;
58681;SDS011;44460;40.162;18.294;2022-07-23T09:38:36;10.07;;;4.00;;
58681;SDS011;44460;40.162;18.294;2022-07-23T09:41:12;10.23;;;3.75;;
58681;SDS011;44460;40.162;18.294;2022-07-23T09:43:38;13.88;;;3.88;;
58681;SDS011;44460;40.162;18.294;2022-07-23T09:46:23;13.13;;;4.10;;
58681;SDS011;44460;40.162;18.294;2022-07-23T09:48:49;6.95;;;3.45;;
58681;SDS011;44460;40.162;18.294;2022-07-23T09:51:16;15.90;;;4.03;;
58681;SDS011;44460;40.162;18.294;2022-07-23T09:54:01;13.45;;;3.42;;
58681;SDS011;44460;40.162;18.294;2022-07-23T09:56:27;11.10;;;3.80;;
58681;SDS011;44460;40.162;18.294;2022-07-23T09:58:52;11.93;;;4.57;;
58681;SDS011;44460;40.162;18.294;2022-07-23T10:01:28;7.07;;;3.20;;
58681;SDS011;44460;40.162;18.294;2022-07-23T10:03:53;5.03;;;2.63;;
58681;SDS011;44460;40.162;18.294;2022-07-23T10:06:36;10.90;;;3.30;;
58681;SDS011;44460;40.162;18.294;2022-07-23T10:09:28;7.65;;;3.22;;
58681;SDS011;44460;40.162;18.294;2022-07-23T10:12:16;5.30;;;3.10;;
58681;SDS011;44460;40.162;18.294;2022-07-23T10:14:59;9.10;;;3.42;;
58681;SDS011;44460;40.162;18.294;2022-07-23T10:17:28;6.57;;;3.53;;
58681;SDS011;44460;40.162;18.294;2022-07-23T10:19:54;6.00;;;2.92;;
58681;SDS011;44460;40.162;18.294;2022-07-23T10:22:21;6.63;;;3.00;;
58681;SDS011;44460;40.162;18.294;2022-07-23T10:27:39;8.95;;;3.22;;
58681;SDS011;44460;40.162;18.294;2022-07-23T10:30:09;7.45;;;2.88;;
58681;SDS011;44460;40.162;18.294;2022-07-23T10:37:49;6.07;;;3.30;;
58681;SDS011;44460;40.162;18.294;2022-07-23T10:40:17;9.23;;;3.25;;
58681;SDS011;44460;40.162;18.294;2022-07-23T10:42:43;6.55;;;3.85;;
58681;SDS011;44460;40.162;18.294;2022-07-23T10:45:25;7.90;;;4.15;;
58681;SDS011;44460;40.162;18.294;2022-07-23T10:47:51;8.32;;;3.38;;
58681;SDS011;44460;40.162;18.294;2022-07-23T10:50:24;8.50;;;3.63;;
58681;SDS011;44460;40.162;18.294;2022-07-23T10:57:59;9.90;;;4.00;;
58681;SDS011;44460;40.162;18.294;2022-07-23T11:00:25;10.10;;;3.58;;
58681;SDS011;44460;40.162;18.294;2022-07-23T11:02:54;8.27;;;3.42;;
58681;SDS011;44460;40.162;18.294;2022-07-23T11:05:21;8.57;;;3.70;;
58681;SDS011;44460;40.162;18.294;2022-07-23T11:10:39;8.05;;;3.63;;
58681;SDS011;44460;40.162;18.294;2022-07-23T11:32:03;11.68;;;3.50;;
58681;SDS011;44460;40.162;18.294;2022-07-23T11:37:05;8.68;;;3.72;;
58681;SDS011;44460;40.162;18.294;2022-07-23T11:39:31;6.88;;;3.55;;
58681;SDS011;44460;40.162;18.294;2022-07-23T11:44:26;8.67;;;3.63;;
58681;SDS011;44460;40.162;18.294;2022-07-23T11:47:02;11.38;;;5.32;;
58681;SDS011;44460;40.162;18.294;2022-07-23T11:49:27;9.10;;;3.50;;
58681;SDS011;44460;40.162;18.294;2022-07-23T11:52:03;6.53;;;3.83;;
58681;SDS011;44460;40.162;18.294;2022-07-23T11:54:30;8.32;;;3.55;;
58681;SDS011;44460;40.162;18.294;2022-07-23T11:56:59;8.25;;;3.72;;
58681;SDS011;44460;40.162;18.294;2022-07-23T11:59:26;11.65;;;3.88;;
58681;SDS011;44460;40.162;18.294;2022-07-23T12:02:02;12.85;;;3.90;;
58681;SDS011;44460;40.162;18.294;2022-07-23T12:04:45;7.70;;;3.60;;
58681;SDS011;44460;40.162;18.294;2022-07-23T12:09:55;9.02;;;3.70;;
58681;SDS011;44460;40.162;18.294;2022-07-23T12:14:53;9.52;;;4.05;;
58681;SDS011;44460;40.162;18.294;2022-07-23T12:17:19;8.18;;;3.45;;
58681;SDS011;44460;40.162;18.294;2022-07-23T12:19:45;11.13;;;3.58;;
58681;SDS011;44460;40.162;18.294;2022-07-23T12:22:11;6.53;;;3.83;;
58681;SDS011;44460;40.162;18.294;2022-07-23T12:24:52;9.60;;;3.53;;
58681;SDS011;44460;40.162;18.294;2022-07-23T12:27:19;7.68;;;3.55;;
58681;SDS011;44460;40.162;18.294;2022-07-23T12:29:45;7.88;;;3.58;;
58681;SDS011;44460;40.162;18.294;2022-07-23T12:32:23;10.73;;;4.27;;
58681;SDS011;44460;40.162;18.294;2022-07-23T12:35:03;7.95;;;3.70;;
58681;SDS011;44460;40.162;18.294;2022-07-23T12:37:30;8.27;;;3.70;;
58681;SDS011;44460;40.162;18.294;2022-07-23T12:39:56;8.30;;;3.80;;
58681;SDS011;44460;40.162;18.294;2022-07-23T12:42:21;9.47;;;3.90;;
58681;SDS011;44460;40.162;18.294;2022-07-23T12:47:30;12.50;;;3.85;;
58681;SDS011;44460;40.162;18.294;2022-07-23T12:49:55;6.30;;;3.60;;
58681;SDS011;44460;40.162;18.294;2022-07-23T12:52:21;6.83;;;3.10;;
58681;SDS011;44460;40.162;18.294;2022-07-23T12:54:46;5.87;;;3.40;;
58681;SDS011;44460;40.162;18.294;2022-07-23T12:57:12;11.33;;;4.10;;
58681;SDS011;44460;40.162;18.294;2022-07-23T12:59:37;6.27;;;3.27;;
58681;SDS011;44460;40.162;18.294;2022-07-23T13:02:03;6.78;;;3.80;;
58681;SDS011;44460;40.162;18.294;2022-07-23T13:04:29;9.10;;;3.27;;
58681;SDS011;44460;40.162;18.294;2022-07-23T13:06:57;8.60;;;3.00;;
58681;SDS011;44460;40.162;18.294;2022-07-23T13:09:24;9.30;;;3.72;;
58681;SDS011;44460;40.162;18.294;2022-07-23T13:14:16;10.55;;;3.05;;
58681;SDS011;44460;40.162;18.294;2022-07-23T13:16:42;8.85;;;3.17;;
58681;SDS011;44460;40.162;18.294;2022-07-23T13:19:08;8.18;;;3.42;;
58681;SDS011;44460;40.162;18.294;2022-07-23T13:21:34;7.30;;;3.27;;
58681;SDS011;44460;40.162;18.294;2022-07-23T13:23:59;6.20;;;3.10;;
58681;SDS011;44460;40.162;18.294;2022-07-23T13:26:25;6.17;;;3.27;;
58681;SDS011;44460;40.162;18.294;2022-07-23T13:28:51;10.25;;;4.00;;
58681;SDS011;44460;40.162;18.294;2022-07-23T13:31:16;11.97;;;5.77;;
58681;SDS011;44460;40.162;18.294;2022-07-23T13:33:42;12.87;;;6.57;;
58681;SDS011;44460;40.162;18.294;2022-07-23T13:36:08;13.10;;;6.60;;
58681;SDS011;44460;40.162;18.294;2022-07-23T13:38:34;14.63;;;6.05;;
58681;SDS011;44460;40.162;18.294;2022-07-23T13:41:00;14.27;;;7.03;;
58681;SDS011;44460;40.162;18.294;2022-07-23T13:43:25;11.60;;;6.50;;
58681;SDS011;44460;40.162;18.294;2022-07-23T13:45:52;13.50;;;6.60;;
58681;SDS011;44460;40.162;18.294;2022-07-23T13:48:17;9.73;;;6.07;;
58681;SDS011;44460;40.162;18.294;2022-07-23T13:50:43;9.40;;;5.40;;
58681;SDS011;44460;40.162;18.294;2022-07-23T13:53:10;12.20;;;6.00;;
58681;SDS011;44460;40.162;18.294;2022-07-23T13:55:36;10.43;;;5.90;;
58681;SDS011;44460;40.162;18.294;2022-07-23T13:58:02;10.70;;;5.53;;
58681;SDS011;44460;40.162;18.294;2022-07-23T14:02:54;8.55;;;4.97;;
58681;SDS011;44460;40.162;18.294;2022-07-23T14:05:20;9.87;;;4.23;;
58681;SDS011;44460;40.162;18.294;2022-07-23T14:07:45;13.30;;;4.60;;
58681;SDS011;44460;40.162;18.294;2022-07-23T14:10:12;10.65;;;4.85;;
58681;SDS011;44460;40.162;18.294;2022-07-23T14:12:37;9.50;;;4.57;;
58681;SDS011;44460;40.162;18.294;2022-07-23T14:15:03;10.37;;;4.90;;
58681;SDS011;44460;40.162;18.294;2022-07-23T14:17:29;6.18;;;3.90;;
58681;SDS011;44460;40.162;18.294;2022-07-23T14:19:55;7.43;;;4.00;;
58681;SDS011;44460;40.162;18.294;2022-07-23T14:22:20;11.48;;;4.68;;
58681;SDS011;44460;40.162;18.294;2022-07-23T14:24:46;9.90;;;4.40;;
58681;SDS011;44460;40.162;18.294;2022-07-23T14:27:11;8.77;;;3.90;;
58681;SDS011;44460;40.162;18.294;2022-07-23T14:29:37;6.97;;;3.93;;
58681;SDS011;44460;40.162;18.294;2022-07-23T14:32:02;9.83;;;4.10;;
58681;SDS011;44460;40.162;18.294;2022-07-23T14:34:28;15.37;;;4.40;;
58681;SDS011;44460;40.162;18.294;2022-07-23T14:36:54;8.13;;;4.10;;
58681;SDS011;44460;40.162;18.294;2022-07-23T14:39:20;8.10;;;4.10;;
58681;SDS011;44460;40.162;18.294;2022-07-23T14:41:45;7.90;;;4.33;;
58681;SDS011;44460;40.162;18.294;2022-07-23T14:44:11;8.43;;;4.57;;
58681;SDS011;44460;40.162;18.294;2022-07-23T14:46:36;8.07;;;4.10;;
58681;SDS011;44460;40.162;18.294;2022-07-23T14:49:02;8.73;;;4.07;;
58681;SDS011;44460;40.162;18.294;2022-07-23T14:51:27;8.37;;;5.10;;
58681;SDS011;44460;40.162;18.294;2022-07-23T14:53:53;8.20;;;4.47;;
58681;SDS011;44460;40.162;18.294;2022-07-23T14:56:18;7.60;;;4.40;;
58681;SDS011;44460;40.162;18.294;2022-07-23T14:58:44;9.87;;;4.30;;
58681;SDS011;44460;40.162;18.294;2022-07-23T15:01:09;6.97;;;3.83;;
58681;SDS011;44460;40.162;18.294;2022-07-23T15:03:35;8.47;;;4.50;;
58681;SDS011;44460;40.162;18.294;2022-07-23T15:06:00;9.47;;;4.60;;
58681;SDS011;44460;40.162;18.294;2022-07-23T15:10:52;9.17;;;4.70;;
58681;SDS011;44460;40.162;18.294;2022-07-23T15:13:18;8.47;;;4.70;;
58681;SDS011;44460;40.162;18.294;2022-07-23T15:15:43;7.97;;;4.40;;
58681;SDS011;44460;40.162;18.294;2022-07-23T15:18:09;8.40;;;4.67;;
58681;SDS011;44460;40.162;18.294;2022-07-23T15:20:35;10.40;;;4.60;;
58681;SDS011;44460;40.162;18.294;2022-07-23T15:23:02;9.48;;;4.50;;
58681;SDS011;44460;40.162;18.294;2022-07-23T15:25:27;9.90;;;4.53;;
58681;SDS011;44460;40.162;18.294;2022-07-23T15:27:53;11.80;;;4.23;;